Time;durP1;ratioP1;P1;durP2;ratioP2;P2;SDS_P1;SDS_P2;PMS_P1;PMS_P2;Temp;Humidity;BMP_temperature;BMP_pressure;BME280_temperature;BME280_humidity;BME280_pressure;Samples;Min_cycle;Max_cycle;Signal;HPM_P1;HPM_P2
2022/12/25 00:01:17;;;;;;;;;;;14.30;54.70;;;;;;5074503;28;19970;-65
2022/12/25 00:03:43;;;;;;;;;;;14.30;54.70;;;;;;5074340;28;19920;-65
2022/12/25 00:06:09;;;;;;;;;;;14.30;54.70;;;;;;5092589;28;19920;-65
2022/12/25 00:08:35;;;;;;;;;;;14.30;54.70;;;;;;5092493;28;19920;-65
2022/12/25 00:11:02;;;;;;;;;;;14.30;54.70;;;;;;5091860;28;19920;-72
2022/12/25 00:13:28;;;;;;;;;;;14.30;54.70;;;;;;5074440;28;19920;-65
2022/12/25 00:15:53;;;;;;;;;;;14.30;54.70;;;;;;5073842;28;20441;-65
2022/12/25 00:18:19;;;;;;;;;;;14.30;54.70;;;;;;5074291;28;19927;-68
2022/12/25 00:20:45;;;;;;;;;;;14.30;54.70;;;;;;5074209;28;19946;-65
2022/12/25 00:23:10;;;;;;;;;;;14.30;54.70;;;;;;5092476;28;19924;-64
2022/12/25 00:25:39;;;;;;;;;;;14.30;54.70;;;;;;5092348;28;20551;-65
2022/12/25 00:28:04;;;;;;;;;;;14.30;54.70;;;;;;5074587;28;19924;-74
2022/12/25 00:30:30;;;;;;;;;;;14.30;54.70;;;;;;5092252;28;20054;-64
2022/12/25 00:32:55;;;;;;;;;;;14.30;54.70;;;;;;5074272;28;19927;-73
2022/12/25 00:35:21;;;;;;;;;;;14.30;54.70;;;;;;5074007;28;19928;-73
2022/12/25 00:37:46;;;;;;;;;;;14.30;54.70;;;;;;5077561;28;19926;-73
2022/12/25 00:40:12;;;;;;;;;;;14.30;54.60;;;;;;5096279;28;19926;-73
2022/12/25 00:42:38;;;;;;;;;;;14.30;54.70;;;;;;5096314;28;19982;-73
2022/12/25 00:45:04;;;;;;;;;;;14.20;54.60;;;;;;5096118;28;20371;-73
2022/12/25 00:47:30;;;;;;;;;;;14.20;54.70;;;;;;5078074;28;19927;-73
2022/12/25 00:49:55;;;;;;;;;;;14.30;54.70;;;;;;5078175;28;19920;-73
2022/12/25 00:52:21;;;;;;;;;;;14.20;54.70;;;;;;5096094;28;20367;-64
2022/12/25 00:54:47;;;;;;;;;;;14.20;54.60;;;;;;5095984;28;19924;-72
2022/12/25 00:57:12;;;;;;;;;;;14.20;54.70;;;;;;5078080;28;20376;-65
2022/12/25 00:59:38;;;;;;;;;;;14.20;54.60;;;;;;5078042;28;20018;-73
2022/12/25 01:02:34;;;;;;;;;;;14.20;54.70;;;;;;5077907;28;20364;-65
2022/12/25 01:04:49;;;;;;;;;;;14.20;54.70;;;;;;5077538;28;19973;-64
2022/12/25 01:07:15;;;;;;;;;;;14.20;54.70;;;;;;5077552;28;20007;-64
2022/12/25 01:12:27;;;;;;;;;;;14.20;54.70;;;;;;5095386;28;19920;-73
2022/12/25 01:14:52;;;;;;;;;;;14.20;54.60;;;;;;5095206;28;19925;-73
2022/12/25 01:17:18;;;;;;;;;;;14.10;54.60;;;;;;5077227;28;19924;-73
2022/12/25 01:19:43;;;;;;;;;;;14.20;54.70;;;;;;5095623;28;19920;-65
2022/12/25 01:22:12;;;;;;;;;;;14.20;54.60;;;;;;5095306;28;19920;-65
2022/12/25 01:24:37;;;;;;;;;;;14.20;54.70;;;;;;5077575;28;19943;-64
2022/12/25 01:27:03;;;;;;;;;;;14.20;54.70;;;;;;5095090;28;20372;-70
2022/12/25 01:29:28;;;;;;;;;;;14.20;54.70;;;;;;5077264;28;19923;-73
2022/12/25 01:31:54;;;;;;;;;;;14.20;55.40;;;;;;5077114;28;19935;-73
2022/12/25 01:34:19;;;;;;;;;;;14.20;54.70;;;;;;5077100;28;19922;-65
2022/12/25 01:36:45;;;;;;;;;;;14.20;54.70;;;;;;5076752;28;19920;-64
2022/12/25 01:39:10;;;;;;;;;;;14.20;54.70;;;;;;5077020;28;20019;-65
2022/12/25 01:41:36;;;;;;;;;;;14.10;54.60;;;;;;5076819;28;20011;-64
2022/12/25 01:46:42;;;;;;;;;;;14.10;54.60;;;;;;5110223;27;19914;-71
2022/12/25 01:49:11;;;;;;;;;;;14.10;54.60;;;;;;5108943;28;19916;-63
2022/12/25 01:51:40;;;;;;;;;;;14.10;54.60;;;;;;5108892;28;19962;-63
2022/12/25 01:54:10;;;;;;;;;;;14.10;54.60;;;;;;5109136;28;19965;-63
2022/12/25 01:56:36;;;;;;;;;;;14.10;54.60;;;;;;5108608;28;20345;-63
2022/12/25 01:59:02;;;;;;;;;;;14.10;54.60;;;;;;5108941;28;19920;-71
2022/12/25 02:01:27;;;;;;;;;;;14.10;54.60;;;;;;5108715;28;20240;-63
2022/12/25 02:03:56;;;;;;;;;;;14.20;54.70;;;;;;5108766;28;19920;-63
2022/12/25 02:06:22;;;;;;;;;;;14.20;54.70;;;;;;5108564;28;19966;-63
2022/12/25 02:08:48;;;;;;;;;;;14.10;54.60;;;;;;5108869;28;19955;-72
2022/12/25 02:11:55;;;;;;;;;;;14.10;54.60;;;;;;5109794;28;19973;-63
2022/12/25 02:13:59;;;;;;;;;;;14.10;54.60;;;;;;5109616;28;19916;-63
2022/12/25 02:16:27;;;;;;;;;;;14.10;54.70;;;;;;5107786;28;20271;-72
2022/12/25 02:18:57;;;;;;;;;;;14.20;54.70;;;;;;5108136;28;20430;-63
2022/12/25 02:29:43;;;;;;;;;;;14.10;54.60;;;;;;5089907;28;19937;-64
2022/12/25 02:32:14;;;;;;;;;;;14.10;54.60;;;;;;5088701;28;19916;-72
2022/12/25 02:34:46;;;;;;;;;;;14.10;54.60;;;;;;5088817;28;19923;-64
2022/12/25 02:37:23;;;;;;;;;;;14.10;54.60;;;;;;5089647;28;19916;-63
2022/12/25 02:40:11;;;;;;;;;;;14.10;54.60;;;;;;5088649;28;20006;-73
2022/12/25 03:07:39;;;;;;;;;;;14.10;54.80;;;;;;5109705;28;19963;-64
2022/12/25 03:12:58;;;;;;;;;;;14.10;54.80;;;;;;5110008;28;19916;-64
2022/12/25 03:18:12;;;;;;;;;;;14.10;54.80;;;;;;5108313;28;19927;-64
2022/12/25 03:28:57;;;;;;;;;;;14.10;54.80;;;;;;5108290;28;19930;-64
2022/12/25 04:38:03;;;;;;;;;;;14.10;55.00;;;;;;5152527;27;19922;-73
2022/12/25 04:40:28;;;;;;;;;;;14.10;55.00;;;;;;5170224;27;19927;-72
2022/12/25 04:42:54;;;;;;;;;;;14.10;55.00;;;;;;5150333;27;20536;-64
2022/12/25 04:45:19;;;;;;;;;;;14.10;55.10;;;;;;5150292;27;20353;-65
2022/12/25 04:47:45;;;;;;;;;;;14.10;55.10;;;;;;5150194;27;19919;-65
2022/12/25 04:50:10;;;;;;;;;;;14.10;55.10;;;;;;5149218;27;20363;-64
2022/12/25 04:52:37;;;;;;;;;;;14.10;55.10;;;;;;5143999;27;19998;-65
2022/12/25 04:55:03;;;;;;;;;;;14.10;55.10;;;;;;5135319;27;19944;-73
2022/12/25 04:57:29;;;;;;;;;;;14.10;55.10;;;;;;5136552;27;19923;-65
2022/12/25 04:59:54;;;;;;;;;;;14.10;55.10;;;;;;5136327;27;20395;-72
2022/12/25 05:02:20;;;;;;;;;;;14.10;55.20;;;;;;5134834;27;20354;-64
2022/12/25 05:04:45;;;;;;;;;;;14.10;55.10;;;;;;5134843;27;19931;-65
2022/12/25 05:07:11;;;;;;;;;;;14.10;55.20;;;;;;5134831;27;19927;-72
2022/12/25 05:09:40;;;;;;;;;;;14.10;55.20;;;;;;5134682;27;19940;-71
2022/12/25 05:12:06;;;;;;;;;;;14.10;55.20;;;;;;5136233;27;19919;-65
2022/12/25 05:14:31;;;;;;;;;;;14.10;55.20;;;;;;5134609;27;19926;-64
2022/12/25 05:16:57;;;;;;;;;;;14.10;55.20;;;;;;5134517;27;19998;-65
2022/12/25 05:19:23;;;;;;;;;;;14.10;55.20;;;;;;5135920;27;19976;-73
2022/12/25 05:21:48;;;;;;;;;;;14.10;55.30;;;;;;5134521;27;20536;-64
2022/12/25 05:24:14;;;;;;;;;;;14.10;55.30;;;;;;5135676;27;19969;-65
2022/12/25 05:26:39;;;;;;;;;;;14.10;55.30;;;;;;5135682;27;19964;-64
2022/12/25 05:29:05;;;;;;;;;;;14.10;55.30;;;;;;5134651;27;20324;-64
2022/12/25 05:31:30;;;;;;;;;;;14.10;56.10;;;;;;5134718;27;20340;-64
2022/12/25 05:33:56;;;;;;;;;;;14.10;55.30;;;;;;5134262;27;20370;-64
2022/12/25 05:36:21;;;;;;;;;;;14.10;55.30;;;;;;5134554;27;19923;-65
2022/12/25 05:38:47;;;;;;;;;;;14.10;55.30;;;;;;5134158;27;19920;-72
2022/12/25 05:41:12;;;;;;;;;;;14.10;55.30;;;;;;5133744;27;19968;-64
2022/12/25 05:43:38;;;;;;;;;;;14.10;55.30;;;;;;5135388;27;19967;-64
2022/12/25 05:46:05;;;;;;;;;;;14.10;55.30;;;;;;5134017;27;20010;-73
2022/12/25 05:48:31;;;;;;;;;;;14.10;55.30;;;;;;5133985;27;19919;-65
2022/12/25 05:50:56;;;;;;;;;;;14.10;55.30;;;;;;5135155;27;19952;-64
2022/12/25 05:53:22;;;;;;;;;;;14.10;55.30;;;;;;5134296;27;20577;-73
2022/12/25 05:55:47;;;;;;;;;;;14.10;55.30;;;;;;5133794;27;19934;-64
2022/12/25 05:58:13;;;;;;;;;;;14.10;55.30;;;;;;5133755;27;19919;-65
2022/12/25 06:00:38;;;;;;;;;;;14.10;55.30;;;;;;5134931;27;19928;-73
2022/12/25 06:03:04;;;;;;;;;;;14.10;55.30;;;;;;5133980;27;19965;-65
2022/12/25 06:05:30;;;;;;;;;;;14.10;55.30;;;;;;5132614;27;19927;-73
2022/12/25 06:07:55;;;;;;;;;;;14.10;55.40;;;;;;5133931;27;19919;-65
2022/12/25 06:10:21;;;;;;;;;;;14.10;55.40;;;;;;5133525;27;19965;-73
2022/12/25 06:12:47;;;;;;;;;;;14.10;55.40;;;;;;5134778;27;19925;-72
2022/12/25 06:15:12;;;;;;;;;;;14.10;55.40;;;;;;5132982;27;19919;-65
2022/12/25 06:17:38;;;;;;;;;;;14.10;56.20;;;;;;5133455;27;19919;-64
2022/12/25 06:20:03;;;;;;;;;;;14.10;55.50;;;;;;5133687;27;19923;-65
2022/12/25 06:22:30;;;;;;;;;;;14.10;55.50;;;;;;5133189;27;20348;-65
2022/12/25 06:24:56;;;;;;;;;;;14.10;55.40;;;;;;5134597;27;19980;-73
2022/12/25 06:27:21;;;;;;;;;;;14.10;55.50;;;;;;5133375;27;20283;-65
2022/12/25 06:29:47;;;;;;;;;;;14.10;55.40;;;;;;5134472;27;19972;-64
2022/12/25 06:32:12;;;;;;;;;;;14.10;55.40;;;;;;5134332;27;19919;-64
2022/12/25 06:34:38;;;;;;;;;;;14.10;55.50;;;;;;5133144;27;19977;-72
2022/12/25 06:37:03;;;;;;;;;;;14.10;55.50;;;;;;5132958;27;19924;-64
2022/12/25 06:39:29;;;;;;;;;;;14.10;55.50;;;;;;5134243;27;19949;-65
2022/12/25 06:41:54;;;;;;;;;;;14.10;55.50;;;;;;5132579;27;19923;-65
2022/12/25 06:44:20;;;;;;;;;;;14.10;55.60;;;;;;5132882;27;19966;-64
2022/12/25 06:46:46;;;;;;;;;;;14.10;55.60;;;;;;5133131;27;19923;-72
2022/12/25 06:49:11;;;;;;;;;;;14.10;55.60;;;;;;5133118;27;19969;-73
2022/12/25 06:51:37;;;;;;;;;;;14.10;55.60;;;;;;5134188;27;20290;-73
2022/12/25 06:54:02;;;;;;;;;;;14.10;55.60;;;;;;5132420;27;19920;-65
2022/12/25 06:56:28;;;;;;;;;;;14.10;55.60;;;;;;5132718;27;19919;-65
2022/12/25 06:58:55;;;;;;;;;;;14.10;55.60;;;;;;5133850;27;19940;-73
2022/12/25 07:01:22;;;;;;;;;;;14.10;55.60;;;;;;5132753;27;19923;-73
2022/12/25 07:03:49;;;;;;;;;;;14.10;55.60;;;;;;5132810;27;19992;-65
2022/12/25 07:06:14;;;;;;;;;;;14.10;55.60;;;;;;5133965;27;19920;-73
2022/12/25 07:08:40;;;;;;;;;;;14.10;55.60;;;;;;5132439;27;19920;-73
2022/12/25 07:11:06;;;;;;;;;;;14.10;55.60;;;;;;5132508;27;19919;-64
2022/12/25 07:13:31;;;;;;;;;;;14.10;55.60;;;;;;5132284;27;19919;-72
2022/12/25 07:15:58;;;;;;;;;;;14.10;55.70;;;;;;5131313;27;19924;-65
2022/12/25 07:18:24;;;;;;;;;;;14.10;55.60;;;;;;5132400;27;19941;-65
2022/12/25 07:20:50;;;;;;;;;;;14.10;55.70;;;;;;5132001;27;20434;-65
2022/12/25 07:23:15;;;;;;;;;;;14.10;55.70;;;;;;5131663;27;19926;-65
2022/12/25 07:25:41;;;;;;;;;;;14.10;55.70;;;;;;5133614;27;19919;-73
2022/12/25 07:28:06;;;;;;;;;;;14.10;55.80;;;;;;5133377;27;20284;-64
2022/12/25 07:30:32;;;;;;;;;;;14.10;55.70;;;;;;5132051;27;19920;-73
2022/12/25 07:32:57;;;;;;;;;;;14.10;55.80;;;;;;5132248;27;19919;-64
2022/12/25 07:35:23;;;;;;;;;;;14.10;55.80;;;;;;5133586;27;19955;-73
2022/12/25 07:37:48;;;;;;;;;;;14.10;55.80;;;;;;5132123;27;19931;-71
2022/12/25 07:40:14;;;;;;;;;;;14.10;55.80;;;;;;5132080;28;19919;-65
2022/12/25 07:42:39;;;;;;;;;;;14.10;55.80;;;;;;5130663;28;19935;-72
2022/12/25 07:45:05;;;;;;;;;;;14.00;55.80;;;;;;5132002;28;19919;-73
2022/12/25 07:47:30;;;;;;;;;;;14.00;55.80;;;;;;5131859;28;20002;-71
2022/12/25 07:49:56;;;;;;;;;;;14.10;55.80;;;;;;5131813;28;19926;-64
2022/12/25 07:52:21;;;;;;;;;;;14.00;55.80;;;;;;5132230;28;19948;-65
2022/12/25 07:54:47;;;;;;;;;;;14.00;55.90;;;;;;5133351;27;20412;-64
2022/12/25 07:57:13;;;;;;;;;;;14.10;55.90;;;;;;5131824;28;20001;-64
2022/12/25 07:59:38;;;;;;;;;;;14.00;55.90;;;;;;5131566;28;19939;-73
2022/12/25 08:02:04;;;;;;;;;;;14.00;55.90;;;;;;5132818;27;19934;-72
2022/12/25 08:04:29;;;;;;;;;;;14.10;55.90;;;;;;5132936;27;19919;-65
2022/12/25 08:06:55;;;;;;;;;;;14.00;55.80;;;;;;5132058;28;19926;-72
2022/12/25 08:09:20;;;;;;;;;;;14.00;55.80;;;;;;5131734;28;19926;-64
2022/12/25 08:11:46;;;;;;;;;;;14.00;55.90;;;;;;5133321;27;19923;-73
2022/12/25 08:14:12;;;;;;;;;;;14.00;55.90;;;;;;5131662;28;20317;-64
2022/12/25 08:16:40;;;;;;;;;;;14.00;55.90;;;;;;5131851;28;20004;-73
2022/12/25 08:19:06;;;;;;;;;;;14.00;55.90;;;;;;5131892;28;19960;-66
2022/12/25 08:21:31;;;;;;;;;;;14.00;55.90;;;;;;5131420;28;19999;-65
2022/12/25 08:23:57;;;;;;;;;;;14.00;55.90;;;;;;5131807;28;20014;-65
2022/12/25 08:26:23;;;;;;;;;;;14.00;55.90;;;;;;5132861;27;19920;-65
2022/12/25 08:28:48;;;;;;;;;;;14.00;56.00;;;;;;5136110;27;20006;-65
2022/12/25 08:31:22;;;;;;;;;;;14.00;56.00;;;;;;5135622;27;20300;-64
2022/12/25 08:33:49;;;;;;;;;;;14.00;56.00;;;;;;5136791;27;19915;-73
2022/12/25 08:36:15;;;;;;;;;;;14.00;56.00;;;;;;5136673;27;19915;-65
2022/12/25 08:38:41;;;;;;;;;;;14.00;56.10;;;;;;5135869;27;19916;-65
2022/12/25 08:41:06;;;;;;;;;;;14.00;56.00;;;;;;5134710;27;19975;-73
2022/12/25 08:43:32;;;;;;;;;;;14.00;56.00;;;;;;5134913;27;19915;-73
2022/12/25 08:45:58;;;;;;;;;;;14.00;56.00;;;;;;5136245;27;19927;-65
2022/12/25 08:48:23;;;;;;;;;;;14.00;56.10;;;;;;5135899;27;20258;-64
2022/12/25 08:50:50;;;;;;;;;;;14.00;56.10;;;;;;5136098;27;20370;-65
2022/12/25 08:53:16;;;;;;;;;;;14.00;56.10;;;;;;5134980;27;20439;-65
2022/12/25 08:55:41;;;;;;;;;;;14.00;56.10;;;;;;5136184;27;20326;-65
2022/12/25 08:58:07;;;;;;;;;;;14.00;56.10;;;;;;5136133;27;19984;-64
2022/12/25 09:00:33;;;;;;;;;;;14.00;56.10;;;;;;5134244;27;19927;-73
2022/12/25 09:02:58;;;;;;;;;;;14.00;56.10;;;;;;5135787;27;19923;-64
2022/12/25 09:05:24;;;;;;;;;;;14.00;56.10;;;;;;5134912;27;19919;-64
2022/12/25 09:07:49;;;;;;;;;;;14.10;56.10;;;;;;5135925;27;19919;-64
2022/12/25 09:10:15;;;;;;;;;;;14.00;56.10;;;;;;5134750;27;19927;-65
2022/12/25 09:12:40;;;;;;;;;;;14.00;56.10;;;;;;5135970;27;20022;-64
2022/12/25 09:15:06;;;;;;;;;;;14.00;56.10;;;;;;5134623;27;19920;-65
2022/12/25 09:17:32;;;;;;;;;;;14.00;56.10;;;;;;5135754;27;19920;-65
2022/12/25 09:19:57;;;;;;;;;;;14.00;56.10;;;;;;5135914;27;20383;-64
2022/12/25 09:22:23;;;;;;;;;;;14.00;56.10;;;;;;5135710;27;19924;-71
2022/12/25 09:24:48;;;;;;;;;;;14.00;56.10;;;;;;5134476;27;19923;-64
2022/12/25 09:27:14;;;;;;;;;;;14.00;56.10;;;;;;5134427;27;19919;-65
2022/12/25 09:29:40;;;;;;;;;;;14.00;56.10;;;;;;5135716;27;20012;-73
2022/12/25 09:32:06;;;;;;;;;;;14.00;56.20;;;;;;5135539;27;20286;-64
2022/12/25 09:34:31;;;;;;;;;;;14.00;56.20;;;;;;5135621;27;20370;-65
2022/12/25 09:36:57;;;;;;;;;;;14.00;56.10;;;;;;5134263;27;19954;-65
2022/12/25 09:39:22;;;;;;;;;;;14.00;56.20;;;;;;5134105;27;19923;-65
2022/12/25 09:41:53;;;;;;;;;;;14.00;56.20;;;;;;5133817;27;20115;-72
2022/12/25 09:44:21;;;;;;;;;;;14.00;56.20;;;;;;5134132;27;20506;-72
2022/12/25 09:46:52;;;;;;;;;;;14.00;56.10;;;;;;5135351;27;19919;-64
2022/12/25 09:49:38;;;;;;;;;;;14.00;56.10;;;;;;5134234;27;20381;-72
2022/12/25 09:52:14;;;;;;;;;;;14.00;56.10;;;;;;5134078;27;20279;-73
2022/12/25 09:57:24;;;;;;;;;;;14.00;56.10;;;;;;5089876;28;20404;-64
2022/12/25 09:59:52;;;;;;;;;;;14.00;56.10;;;;;;5088869;28;19920;-64
2022/12/25 10:02:38;;;;;;;;;;;14.00;56.20;;;;;;5088827;28;19920;-64
2022/12/25 10:05:24;;;;;;;;;;;14.00;56.20;;;;;;5088141;28;20397;-72
2022/12/25 10:07:58;;;;;;;;;;;14.00;56.20;;;;;;5088503;28;19920;-72
2022/12/25 10:10:43;;;;;;;;;;;14.00;56.20;;;;;;5088466;28;20379;-64
2022/12/25 10:13:28;;;;;;;;;;;14.00;56.20;;;;;;5087616;28;19925;-72
2022/12/25 10:16:08;;;;;;;;;;;14.00;56.20;;;;;;5087528;28;19924;-72
2022/12/25 10:18:44;;;;;;;;;;;14.00;56.20;;;;;;5088125;28;19924;-72
2022/12/25 10:21:13;;;;;;;;;;;14.00;56.20;;;;;;5088239;28;19966;-72
2022/12/25 10:23:40;;;;;;;;;;;14.00;56.20;;;;;;5089362;28;20396;-72
2022/12/25 10:26:15;;;;;;;;;;;14.00;56.20;;;;;;5088120;28;20007;-64
2022/12/25 10:28:59;;;;;;;;;;;14.00;56.20;;;;;;5088392;28;20003;-72
2022/12/25 10:31:25;;;;;;;;;;;14.00;56.20;;;;;;5088072;28;19969;-73
2022/12/25 10:33:52;;;;;;;;;;;14.00;56.20;;;;;;5089265;28;19964;-64
2022/12/25 10:36:19;;;;;;;;;;;14.00;56.20;;;;;;5089128;28;20449;-72
2022/12/25 10:38:45;;;;;;;;;;;14.00;56.20;;;;;;5089203;28;19925;-71
2022/12/25 10:43:53;;;;;;;;;;;14.10;56.20;;;;;;5090027;28;19919;-64
2022/12/25 10:46:19;;;;;;;;;;;14.10;56.20;;;;;;5088553;28;19920;-72
2022/12/25 10:48:47;;;;;;;;;;;14.10;56.20;;;;;;5088921;28;19920;-64
2022/12/25 10:51:13;;;;;;;;;;;14.10;56.20;;;;;;5088499;28;19920;-64
2022/12/25 10:53:40;;;;;;;;;;;14.10;56.20;;;;;;5088803;28;19921;-71
2022/12/25 10:56:06;;;;;;;;;;;14.10;56.10;;;;;;5088335;28;19926;-63
2022/12/25 10:58:32;;;;;;;;;;;14.10;56.10;;;;;;5088732;28;19971;-72
2022/12/25 11:03:42;;;;;;;;;;;14.10;56.10;;;;;;5110350;27;19912;-68
2022/12/25 11:06:25;;;;;;;;;;;14.10;56.20;;;;;;5108943;28;19920;-66
2022/12/25 11:08:56;;;;;;;;;;;14.10;56.20;;;;;;5108872;28;19973;-64
2022/12/25 11:11:22;;;;;;;;;;;14.10;56.20;;;;;;5109138;28;19985;-64
2022/12/25 11:13:49;;;;;;;;;;;14.10;56.20;;;;;;5109181;28;19969;-72
2022/12/25 11:16:35;;;;;;;;;;;14.10;56.20;;;;;;5108904;28;19920;-72
2022/12/25 11:19:01;;;;;;;;;;;14.10;56.20;;;;;;5108561;28;19966;-64
2022/12/25 11:21:30;;;;;;;;;;;14.10;56.30;;;;;;5108742;28;19926;-72
2022/12/25 11:26:53;;;;;;;;;;;14.10;56.30;;;;;;5089904;28;20386;-64
2022/12/25 11:29:36;;;;;;;;;;;14.10;57.00;;;;;;5089924;28;19924;-71
2022/12/25 11:32:03;;;;;;;;;;;14.10;56.30;;;;;;5088803;28;20053;-65
2022/12/25 11:34:34;;;;;;;;;;;14.10;56.30;;;;;;5088882;28;20249;-72
2022/12/25 11:37:01;;;;;;;;;;;14.10;56.30;;;;;;5088405;28;19935;-64
2022/12/25 11:42:25;;;;;;;;;;;14.10;56.30;;;;;;5129466;27;1867778;-64
2022/12/25 11:44:53;;;;;;;;;;;14.10;56.30;;;;;;5174437;27;19926;-64
2022/12/25 11:47:24;;;;;;;;;;;14.10;56.30;;;;;;5174653;27;19923;-64
2022/12/25 11:50:01;;;;;;;;;;;14.10;56.30;;;;;;5174358;27;20366;-72
2022/12/25 11:52:30;;;;;;;;;;;14.10;56.40;;;;;;5193099;27;19979;-72
2022/12/25 11:55:02;;;;;;;;;;;14.10;56.40;;;;;;5174532;27;19918;-64
2022/12/25 11:57:29;;;;;;;;;;;14.10;56.40;;;;;;5174090;27;19919;-72
2022/12/25 11:59:58;;;;;;;;;;;14.10;56.40;;;;;;5174363;27;19934;-64
2022/12/25 12:02:28;;;;;;;;;;;14.10;56.40;;;;;;5174315;27;19926;-64
2022/12/25 12:05:00;;;;;;;;;;;14.10;56.40;;;;;;5174109;27;19930;-64
2022/12/25 12:07:28;;;;;;;;;;;14.10;56.40;;;;;;5174235;27;19941;-64
2022/12/25 12:09:59;;;;;;;;;;;14.10;56.40;;;;;;5192809;27;19957;-64
2022/12/25 12:12:28;;;;;;;;;;;14.10;56.40;;;;;;5192706;27;19918;-64
2022/12/25 12:14:58;;;;;;;;;;;14.10;56.40;;;;;;5174170;27;19925;-64
2022/12/25 12:17:24;;;;;;;;;;;14.10;56.40;;;;;;5192531;27;19925;-64
2022/12/25 12:19:50;;;;;;;;;;;14.10;56.50;;;;;;5192637;27;20310;-73
2022/12/25 12:22:17;;;;;;;;;;;14.10;56.50;;;;;;5192448;27;19919;-64
2022/12/25 12:24:43;;;;;;;;;;;14.10;56.50;;;;;;5192480;27;20354;-64
2022/12/25 12:29:51;;;;;;;;;;;14.10;56.50;;;;;;5090012;28;19913;-64
2022/12/25 12:32:24;;;;;;;;;;;14.10;56.50;;;;;;5088637;28;19930;-64
2022/12/25 12:34:49;;;;;;;;;;;14.10;56.50;;;;;;5088842;28;20513;-64
2022/12/25 12:37:17;;;;;;;;;;;14.10;56.50;;;;;;5088546;28;19920;-64
2022/12/25 12:39:43;;;;;;;;;;;14.10;56.50;;;;;;5088767;28;19942;-72
2022/12/25 12:42:13;;;;;;;;;;;14.10;56.50;;;;;;5088722;28;20007;-72
2022/12/25 12:44:39;;;;;;;;;;;14.10;56.50;;;;;;5088693;28;19920;-64
2022/12/25 12:47:04;;;;;;;;;;;14.10;56.50;;;;;;5088601;28;19942;-64
2022/12/25 12:49:32;;;;;;;;;;;14.10;56.60;;;;;;5087406;28;19969;-72
2022/12/25 12:52:02;;;;;;;;;;;14.10;56.60;;;;;;5089771;28;19927;-64
2022/12/25 12:54:28;;;;;;;;;;;14.10;56.60;;;;;;5088489;28;20325;-72
2022/12/25 12:56:55;;;;;;;;;;;14.10;56.60;;;;;;5088517;28;19924;-64
2022/12/25 12:59:20;;;;;;;;;;;14.10;56.60;;;;;;5088742;28;19920;-64
2022/12/25 13:01:52;;;;;;;;;;;14.10;56.60;;;;;;5089237;28;20379;-64
2022/12/25 13:04:31;;;;;;;;;;;14.10;56.60;;;;;;5089171;28;19926;-64
2022/12/25 13:07:03;;;;;;;;;;;14.10;56.60;;;;;;5088313;28;19920;-64
2022/12/25 13:09:37;;;;;;;;;;;14.10;56.60;;;;;;5089125;28;19924;-64
2022/12/25 13:12:05;;;;;;;;;;;14.10;56.60;;;;;;5087855;28;19920;-64
2022/12/25 13:14:31;;;;;;;;;;;14.20;56.70;;;;;;5087981;28;19970;-65
2022/12/25 13:16:57;;;;;;;;;;;14.20;56.70;;;;;;5087658;28;19959;-64
2022/12/25 13:19:24;;;;;;;;;;;14.20;56.70;;;;;;5087769;28;19920;-64
2022/12/25 13:21:51;;;;;;;;;;;14.10;56.70;;;;;;5088835;28;19946;-64
2022/12/25 13:24:18;;;;;;;;;;;14.10;56.70;;;;;;5086878;28;19921;-65
2022/12/25 13:26:43;;;;;;;;;;;14.10;56.70;;;;;;5087736;28;19920;-65
2022/12/25 13:29:29;;;;;;;;;;;14.10;56.70;;;;;;5087278;28;19924;-65
2022/12/25 13:31:55;;;;;;;;;;;14.10;56.70;;;;;;5088675;28;20291;-64
2022/12/25 13:34:25;;;;;;;;;;;14.10;56.70;;;;;;5087664;28;19924;-65
2022/12/25 13:36:51;;;;;;;;;;;14.10;56.80;;;;;;5087193;28;19925;-72
2022/12/25 13:39:16;;;;;;;;;;;14.10;56.70;;;;;;5083638;28;19969;-64
2022/12/25 13:42:16;;;;;;;;;;;14.20;56.80;;;;;;5073738;28;19920;-64
2022/12/25 13:47:21;;;;;;;;;;;14.10;56.80;;;;;;5110151;27;19944;-63
2022/12/25 13:49:47;;;;;;;;;;;14.10;56.80;;;;;;5108907;28;20279;-64
2022/12/25 13:52:15;;;;;;;;;;;14.10;56.90;;;;;;5109095;28;19916;-64
2022/12/25 13:54:57;;;;;;;;;;;14.10;56.90;;;;;;5108867;28;19969;-70
2022/12/25 13:57:25;;;;;;;;;;;14.10;56.90;;;;;;5108777;28;19916;-64
2022/12/25 13:59:51;;;;;;;;;;;14.10;56.90;;;;;;5108645;28;19924;-63
2022/12/25 14:02:18;;;;;;;;;;;14.10;56.90;;;;;;5108836;28;19962;-71
2022/12/25 14:04:44;;;;;;;;;;;14.10;56.90;;;;;;5109904;28;20256;-63
2022/12/25 14:07:10;;;;;;;;;;;14.10;56.90;;;;;;5109719;28;19924;-63
2022/12/25 14:09:37;;;;;;;;;;;14.10;56.90;;;;;;5108888;28;20007;-70
2022/12/25 14:12:03;;;;;;;;;;;14.10;56.90;;;;;;5107899;28;20370;-63
2022/12/25 14:14:29;;;;;;;;;;;14.10;56.90;;;;;;5109783;28;19945;-63
2022/12/25 14:16:56;;;;;;;;;;;14.10;57.00;;;;;;5110260;28;20263;-64
2022/12/25 14:22:15;;;;;;;;;;;14.10;57.00;;;;;;5089758;28;19909;-63
2022/12/25 14:24:40;;;;;;;;;;;14.10;57.00;;;;;;5090130;28;20011;-63
2022/12/25 14:27:14;;;;;;;;;;;14.10;57.00;;;;;;5088412;28;20007;-63
2022/12/25 14:29:43;;;;;;;;;;;14.10;57.10;;;;;;5088262;28;20101;-63
2022/12/25 14:32:13;;;;;;;;;;;14.10;57.00;;;;;;5071768;28;20360;-63
2022/12/25 14:34:41;;;;;;;;;;;14.00;57.00;;;;;;5088344;28;19916;-63
2022/12/25 14:37:09;;;;;;;;;;;14.10;57.10;;;;;;5088635;28;19923;-64
2022/12/25 14:39:36;;;;;;;;;;;14.10;57.10;;;;;;5088401;28;19916;-70
2022/12/25 14:42:11;;;;;;;;;;;14.10;57.10;;;;;;5088410;28;20260;-69
2022/12/25 14:44:38;;;;;;;;;;;14.10;57.10;;;;;;5088076;28;19969;-63
2022/12/25 14:47:19;;;;;;;;;;;14.10;57.10;;;;;;5088362;28;19928;-63
2022/12/25 14:49:45;;;;;;;;;;;14.10;57.10;;;;;;5089464;28;19916;-70
2022/12/25 14:52:14;;;;;;;;;;;14.10;57.10;;;;;;5089474;28;20421;-63
2022/12/25 14:54:43;;;;;;;;;;;14.10;57.10;;;;;;5088392;28;19916;-63
2022/12/25 14:57:15;;;;;;;;;;;14.10;57.10;;;;;;5088025;28;19916;-69
2022/12/25 14:59:40;;;;;;;;;;;14.10;57.10;;;;;;5089167;28;19917;-63
2022/12/25 15:02:16;;;;;;;;;;;14.10;57.10;;;;;;5087854;28;20253;-63
2022/12/25 15:04:42;;;;;;;;;;;14.10;57.10;;;;;;5087930;28;20449;-63
2022/12/25 15:07:23;;;;;;;;;;;14.10;57.20;;;;;;5088082;28;20010;-70
2022/12/25 15:09:48;;;;;;;;;;;14.10;57.30;;;;;;5087787;28;19917;-63
2022/12/25 15:12:14;;;;;;;;;;;14.10;57.20;;;;;;5087728;28;20057;-63
2022/12/25 15:14:39;;;;;;;;;;;14.10;57.30;;;;;;5087562;28;19921;-70
2022/12/25 15:17:05;;;;;;;;;;;14.10;57.30;;;;;;5087622;28;19927;-63
2022/12/25 15:19:33;;;;;;;;;;;14.10;57.30;;;;;;5087547;28;19920;-64
2022/12/25 15:22:00;;;;;;;;;;;14.10;57.30;;;;;;5090919;28;19931;-63
2022/12/25 15:24:25;;;;;;;;;;;14.00;57.30;;;;;;5109063;28;20284;-63
2022/12/25 15:26:54;;;;;;;;;;;14.00;57.30;;;;;;5091170;28;19946;-63
2022/12/25 15:29:19;;;;;;;;;;;14.00;57.40;;;;;;5108864;28;19920;-63
2022/12/25 15:31:45;;;;;;;;;;;14.10;57.40;;;;;;5086147;28;19961;-63
2022/12/25 15:34:15;;;;;;;;;;;14.10;57.40;;;;;;5095306;28;19920;-63
2022/12/25 15:36:40;;;;;;;;;;;14.00;57.40;;;;;;5077177;28;19966;-63
2022/12/25 15:39:06;;;;;;;;;;;14.00;57.40;;;;;;5095178;28;19919;-63
2022/12/25 15:44:20;;;;;;;;;;;14.10;57.40;;;;;;5094941;28;19924;-63
2022/12/25 15:46:46;;;;;;;;;;;14.10;57.40;;;;;;5077299;28;19927;-63
2022/12/25 15:49:12;;;;;;;;;;;14.00;57.80;;;;;;5076843;28;20379;-63
2022/12/25 15:51:38;;;;;;;;;;;14.10;57.40;;;;;;5095073;28;20016;-63
2022/12/25 15:54:04;;;;;;;;;;;14.00;57.40;;;;;;5095049;28;19955;-63
2022/12/25 15:56:34;;;;;;;;;;;14.10;57.50;;;;;;5094846;28;20430;-63
2022/12/25 15:58:59;;;;;;;;;;;14.10;57.50;;;;;;5077043;28;19928;-62
2022/12/25 16:01:25;;;;;;;;;;;14.10;57.70;;;;;;5094667;28;20403;-63
2022/12/25 16:03:50;;;;;;;;;;;14.10;57.50;;;;;;5094803;28;19924;-63
2022/12/25 16:06:17;;;;;;;;;;;14.10;57.50;;;;;;5076573;28;19920;-63
2022/12/25 16:08:45;;;;;;;;;;;14.10;57.50;;;;;;5094755;28;19920;-63
2022/12/25 16:11:11;;;;;;;;;;;14.00;57.50;;;;;;5076394;28;19935;-63
2022/12/25 16:13:36;;;;;;;;;;;14.00;57.50;;;;;;5094779;28;19924;-63
2022/12/25 16:16:02;;;;;;;;;;;14.00;57.50;;;;;;5075946;28;19920;-62
2022/12/25 16:18:29;;;;;;;;;;;14.00;57.60;;;;;;5094611;28;19920;-63
2022/12/25 16:20:55;;;;;;;;;;;14.00;57.60;;;;;;5072720;28;19924;-63
2022/12/25 16:23:21;;;;;;;;;;;14.00;57.60;;;;;;5074397;28;20319;-63
2022/12/25 16:25:46;;;;;;;;;;;14.00;57.60;;;;;;5074037;28;19920;-63
2022/12/25 16:28:12;;;;;;;;;;;14.10;57.70;;;;;;5073084;28;20439;-63
2022/12/25 16:30:38;;;;;;;;;;;14.00;57.60;;;;;;5072675;28;20311;-63
2022/12/25 16:33:04;;;;;;;;;;;14.00;57.60;;;;;;5074072;28;20139;-63
2022/12/25 16:35:29;;;;;;;;;;;14.00;57.60;;;;;;5072706;28;20570;-63
2022/12/25 16:37:55;;;;;;;;;;;14.00;57.60;;;;;;5072526;28;19921;-63
2022/12/25 16:40:20;;;;;;;;;;;14.10;57.70;;;;;;5072498;28;19932;-63
2022/12/25 16:42:46;;;;;;;;;;;14.00;57.60;;;;;;5072194;28;19921;-63